createdAt,value
2022-12-31T00:01:08.097Z,65.42
2022-12-31T00:03:36.593Z,65.33
2022-12-31T00:06:14.870Z,65.52
2022-12-31T00:08:43.492Z,64.69
2022-12-31T00:11:13.533Z,65.17
2022-12-31T00:13:43.167Z,65.56
2022-12-31T00:16:14.129Z,64.91
2022-12-31T00:18:45.304Z,65.69
2022-12-31T00:21:14.274Z,68.05
2022-12-31T00:23:42.994Z,68.28
2022-12-31T00:26:13.725Z,68.35
2022-12-31T00:28:42.924Z,68.75
2022-12-31T00:31:13.144Z,68.24
2022-12-31T00:33:41.688Z,67.36
2022-12-31T00:36:12.263Z,67.53
2022-12-31T00:38:41.545Z,67.18
2022-12-31T00:41:10.785Z,67.23
2022-12-31T00:43:40.939Z,67.34
2022-12-31T00:46:10.528Z,66.79
2022-12-31T00:48:39.426Z,66.43
2022-12-31T00:51:09.866Z,66.63
2022-12-31T00:53:38.804Z,66.65
2022-12-31T00:56:09.560Z,68.63
2022-12-31T00:58:38.139Z,68.24
2022-12-31T01:01:12.312Z,67.44
2022-12-31T01:03:41.060Z,66.58
2022-12-31T01:06:10.089Z,66.58
2022-12-31T01:08:38.564Z,66.54
2022-12-31T01:11:23.300Z,66.94
2022-12-31T01:13:53.763Z,66.59
2022-12-31T01:16:27.626Z,66.36
2022-12-31T01:18:56.540Z,66.27
2022-12-31T01:21:25.563Z,67.44
2022-12-31T01:23:54.120Z,67.29
2022-12-31T01:26:23.071Z,66.21
2022-12-31T01:28:51.593Z,65.99
2022-12-31T01:31:21.572Z,65.99
2022-12-31T01:33:53.354Z,65.65
2022-12-31T01:36:26.739Z,66.01
2022-12-31T01:38:55.836Z,66.00
2022-12-31T01:41:27.355Z,66.21
2022-12-31T01:43:58.823Z,67.47
2022-12-31T01:46:33.047Z,67.69
2022-12-31T01:49:10.845Z,66.91
2022-12-31T01:51:42.101Z,67.53
2022-12-31T01:54:14.394Z,65.88
2022-12-31T01:56:44.635Z,66.07
2022-12-31T01:59:16.074Z,65.94
2022-12-31T02:01:46.722Z,65.66
2022-12-31T02:04:17.820Z,65.98
2022-12-31T02:06:51.765Z,66.69
2022-12-31T02:09:20.868Z,66.62
2022-12-31T02:11:49.569Z,66.27
2022-12-31T02:14:19.115Z,66.84
2022-12-31T02:16:57.250Z,67.24
2022-12-31T02:19:56.118Z,67.59
2022-12-31T02:22:41.983Z,68.19
2022-12-31T02:25:25.871Z,68.02
2022-12-31T02:28:04.329Z,68.68
2022-12-31T02:30:35.845Z,67.47
2022-12-31T02:33:17.037Z,67.94
2022-12-31T02:35:50.805Z,68.08
2022-12-31T02:38:23.694Z,67.40
2022-12-31T02:40:53.869Z,67.18
2022-12-31T02:43:22.498Z,67.63
2022-12-31T02:46:04.367Z,68.83
2022-12-31T02:48:43.933Z,69.62
2022-12-31T02:51:32.940Z,68.99
2022-12-31T02:54:19.353Z,68.04
2022-12-31T02:57:00.736Z,67.93
2022-12-31T02:59:52.434Z,68.18
2022-12-31T03:02:24.611Z,67.25
2022-12-31T03:04:55.366Z,66.65
2022-12-31T03:07:26.665Z,66.84
2022-12-31T03:09:56.008Z,66.64
2022-12-31T03:12:45.065Z,66.65
2022-12-31T03:15:21.322Z,66.25
2022-12-31T03:17:55.317Z,66.69
2022-12-31T03:20:45.108Z,67.30
2022-12-31T03:23:16.955Z,67.89
2022-12-31T03:25:44.415Z,67.43
2022-12-31T03:28:15.755Z,66.98
2022-12-31T03:30:47.204Z,67.74
2022-12-31T03:33:17.578Z,67.48
2022-12-31T03:35:48.144Z,67.66
2022-12-31T03:38:17.538Z,67.37
2022-12-31T03:40:48.511Z,67.56
2022-12-31T03:43:17.308Z,67.82
2022-12-31T03:45:45.491Z,66.79
2022-12-31T03:48:16.545Z,67.00
2022-12-31T03:50:46.681Z,66.96
2022-12-31T03:53:15.285Z,66.67
2022-12-31T03:55:43.864Z,67.19
2022-12-31T03:58:12.455Z,68.02
2022-12-31T04:00:40.933Z,68.49
2022-12-31T04:03:09.572Z,67.94
2022-12-31T04:05:40.526Z,67.20
2022-12-31T04:08:10.436Z,68.17
2022-12-31T04:10:39.013Z,68.71
2022-12-31T04:13:07.456Z,68.54
2022-12-31T04:15:35.891Z,68.53
2022-12-31T04:18:04.510Z,68.35
2022-12-31T04:20:32.830Z,67.59
2022-12-31T04:23:01.227Z,66.93
2022-12-31T04:25:31.091Z,66.97
2022-12-31T04:27:59.614Z,68.00
2022-12-31T04:30:28.017Z,68.61
2022-12-31T04:32:56.554Z,67.94
2022-12-31T04:35:25.093Z,68.15
2022-12-31T04:37:53.624Z,67.51
2022-12-31T04:40:22.119Z,67.48
2022-12-31T04:42:52.062Z,66.82
2022-12-31T04:45:20.595Z,67.31
2022-12-31T04:47:49.067Z,67.71
2022-12-31T04:50:17.957Z,67.55
2022-12-31T04:52:46.044Z,67.96
2022-12-31T04:55:14.470Z,68.14
2022-12-31T04:57:43.083Z,68.97
2022-12-31T05:00:13.804Z,69.37
2022-12-31T05:02:42.539Z,69.16
2022-12-31T05:05:10.860Z,68.83
2022-12-31T05:07:39.456Z,67.94
2022-12-31T05:10:08.905Z,67.97
2022-12-31T05:12:37.391Z,68.21
2022-12-31T05:15:06.741Z,68.75
2022-12-31T05:17:37.401Z,69.21
2022-12-31T05:20:06.780Z,68.91
2022-12-31T05:22:35.209Z,69.35
2022-12-31T05:25:03.705Z,68.91
2022-12-31T05:27:32.242Z,69.26
2022-12-31T05:30:00.821Z,69.39
2022-12-31T05:32:29.281Z,70.03
2022-12-31T05:34:59.878Z,70.00
2022-12-31T05:37:30.614Z,70.28
2022-12-31T05:39:59.378Z,70.26
2022-12-31T05:42:28.306Z,71.12
2022-12-31T05:44:57.094Z,71.27
2022-12-31T05:47:25.553Z,71.48
2022-12-31T05:49:54.150Z,71.63
2022-12-31T05:52:24.304Z,71.79
2022-12-31T05:54:53.787Z,71.58
2022-12-31T05:57:22.215Z,72.32
2022-12-31T05:59:53.587Z,72.25
2022-12-31T06:02:23.066Z,71.01
2022-12-31T06:04:51.607Z,71.00
2022-12-31T06:07:20.104Z,71.86
2022-12-31T06:09:50.216Z,71.80
2022-12-31T06:12:18.714Z,72.24
2022-12-31T06:14:51.798Z,72.75
2022-12-31T06:17:20.711Z,72.05
2022-12-31T06:19:49.260Z,71.64
2022-12-31T06:22:18.021Z,71.90
2022-12-31T06:24:46.131Z,71.40
2022-12-31T06:27:16.079Z,71.56
2022-12-31T06:29:45.788Z,71.36
2022-12-31T06:32:14.129Z,71.96
2022-12-31T06:34:42.617Z,71.35
2022-12-31T06:37:11.446Z,72.02
2022-12-31T06:39:39.942Z,71.50
2022-12-31T06:42:08.391Z,72.19
2022-12-31T06:44:38.235Z,71.94
2022-12-31T06:47:06.756Z,71.71
2022-12-31T06:49:35.166Z,72.03
2022-12-31T06:52:03.655Z,71.54
2022-12-31T06:54:32.248Z,71.71
2022-12-31T06:57:02.166Z,71.50
2022-12-31T06:59:31.706Z,71.38
2022-12-31T07:02:13.603Z,71.06
2022-12-31T07:05:17.409Z,72.38
2022-12-31T07:07:56.552Z,72.31
2022-12-31T07:10:33.761Z,71.36
2022-12-31T07:13:21.380Z,71.68
2022-12-31T07:16:03.211Z,72.02
2022-12-31T07:18:41.989Z,72.91
2022-12-31T07:21:14.605Z,72.54
2022-12-31T07:23:44.081Z,72.81
2022-12-31T07:26:21.734Z,73.13
2022-12-31T07:28:59.688Z,73.36
2022-12-31T07:31:41.491Z,73.73
2022-12-31T07:34:20.857Z,73.34
2022-12-31T07:37:02.610Z,72.93
2022-12-31T07:39:40.796Z,73.12
2022-12-31T07:42:16.581Z,74.30
2022-12-31T07:44:58.398Z,73.45
2022-12-31T07:47:28.261Z,73.11
2022-12-31T07:49:59.127Z,72.93
2022-12-31T07:52:28.520Z,71.79
2022-12-31T07:54:56.973Z,72.64
2022-12-31T07:57:34.517Z,74.12
2022-12-31T08:00:09.330Z,72.79
2022-12-31T08:03:03.661Z,72.99
2022-12-31T08:05:43.922Z,73.20
2022-12-31T08:08:23.700Z,73.32
2022-12-31T08:11:02.125Z,73.33
2022-12-31T08:13:31.128Z,72.66
2022-12-31T08:16:00.580Z,71.35
2022-12-31T08:18:29.519Z,70.50
2022-12-31T08:21:14.945Z,72.14
2022-12-31T08:23:55.083Z,71.62
2022-12-31T08:26:36.158Z,71.21
2022-12-31T08:29:20.672Z,70.20
2022-12-31T08:31:56.953Z,69.19
2022-12-31T08:34:31.048Z,69.02
2022-12-31T08:37:06.124Z,69.33
2022-12-31T08:39:53.909Z,69.73
2022-12-31T08:42:31.556Z,69.76
2022-12-31T08:45:07.411Z,68.78
2022-12-31T08:47:43.511Z,68.53
2022-12-31T08:50:16.504Z,69.49
2022-12-31T08:52:47.514Z,68.29
2022-12-31T08:55:19.019Z,67.14
2022-12-31T08:58:01.262Z,69.26
2022-12-31T09:00:31.567Z,69.02
2022-12-31T09:03:21.207Z,68.46
2022-12-31T09:05:58.941Z,69.56
2022-12-31T09:08:39.575Z,70.00
2022-12-31T09:11:20.807Z,68.61
2022-12-31T09:14:20.952Z,69.92
2022-12-31T09:16:59.152Z,69.09
2022-12-31T09:19:28.253Z,69.17
2022-12-31T09:21:57.375Z,68.13
2022-12-31T09:24:28.023Z,67.65
2022-12-31T09:27:06.264Z,67.63
2022-12-31T09:29:53.096Z,68.02
2022-12-31T09:32:29.114Z,68.65
2022-12-31T09:35:08.922Z,67.61
2022-12-31T09:37:43.877Z,67.13
2022-12-31T09:40:37.108Z,67.91
2022-12-31T09:43:24.754Z,67.60
2022-12-31T09:46:21.794Z,67.52
2022-12-31T09:49:37.908Z,67.48
2022-12-31T09:52:17.990Z,68.17
2022-12-31T09:54:56.304Z,68.47
2022-12-31T09:57:48.555Z,69.01
2022-12-31T10:00:25.414Z,68.09
2022-12-31T10:03:27.683Z,70.03
2022-12-31T10:06:27.963Z,69.80
2022-12-31T10:09:31.040Z,69.54
2022-12-31T10:12:19.174Z,69.93
2022-12-31T10:15:05.110Z,68.57
2022-12-31T10:17:47.416Z,67.88
2022-12-31T10:20:31.864Z,67.46
2022-12-31T10:23:40.833Z,67.22
2022-12-31T10:26:24.916Z,67.54
2022-12-31T10:28:57.666Z,68.59
2022-12-31T10:31:40.270Z,70.23
2022-12-31T10:34:18.526Z,70.16
2022-12-31T10:37:12.095Z,70.09
2022-12-31T10:39:55.566Z,70.92
2022-12-31T10:42:56.500Z,72.57
2022-12-31T10:46:07.550Z,72.22
2022-12-31T10:49:21.195Z,72.12
2022-12-31T10:52:16.170Z,72.08
2022-12-31T10:55:17.442Z,72.75
2022-12-31T10:58:04.749Z,71.67
2022-12-31T11:00:40.495Z,70.79
2022-12-31T11:03:48.155Z,71.35
2022-12-31T11:07:14.981Z,72.08
2022-12-31T11:10:21.688Z,72.54
2022-12-31T11:13:41.103Z,71.66
2022-12-31T11:16:25.535Z,70.28
2022-12-31T11:19:02.285Z,70.50
2022-12-31T11:21:49.158Z,69.48
2022-12-31T11:24:35.709Z,68.89
2022-12-31T11:27:23.706Z,69.01
2022-12-31T11:30:07.134Z,67.92
2022-12-31T11:32:48.512Z,68.00
2022-12-31T11:35:29.161Z,68.49
2022-12-31T11:38:06.200Z,70.65
2022-12-31T11:40:56.249Z,73.24
2022-12-31T11:43:42.150Z,73.74
2022-12-31T11:46:41.737Z,74.89
2022-12-31T11:49:27.866Z,74.42
2022-12-31T11:52:21.151Z,73.40
2022-12-31T11:55:25.193Z,70.93
2022-12-31T11:58:01.110Z,73.81
2022-12-31T12:00:57.667Z,72.67
2022-12-31T12:03:29.345Z,72.11
2022-12-31T12:06:01.081Z,73.07
2022-12-31T12:08:33.987Z,74.03
2022-12-31T12:11:06.917Z,72.91
2022-12-31T12:13:36.899Z,73.19
2022-12-31T12:16:09.321Z,72.18
2022-12-31T12:18:43.740Z,71.66
2022-12-31T12:21:15.617Z,71.25
2022-12-31T12:23:56.086Z,72.02
2022-12-31T12:26:30.677Z,72.17
2022-12-31T12:29:01.402Z,72.83
2022-12-31T12:31:36.623Z,71.00
2022-12-31T12:34:27.939Z,71.99
2022-12-31T12:37:23.173Z,72.61
2022-12-31T12:39:57.994Z,71.19
2022-12-31T12:42:26.664Z,71.12
2022-12-31T12:45:08.666Z,72.88
2022-12-31T12:47:38.873Z,71.92
2022-12-31T12:50:17.101Z,71.66
2022-12-31T12:53:08.315Z,72.56
2022-12-31T12:55:45.667Z,72.99
2022-12-31T12:58:27.659Z,72.28
2022-12-31T13:01:08.504Z,72.59
2022-12-31T13:07:13.543Z,72.52
2022-12-31T13:10:03.875Z,73.67
2022-12-31T13:13:21.683Z,74.08
2022-12-31T13:15:39.183Z,74.20
2022-12-31T13:18:20.645Z,73.78
2022-12-31T13:21:28.277Z,72.24
2022-12-31T13:24:05.145Z,71.44
2022-12-31T13:26:42.690Z,70.75
2022-12-31T13:29:17.172Z,70.35
2022-12-31T13:31:47.274Z,69.27
2022-12-31T13:34:19.793Z,70.72
2022-12-31T13:36:56.041Z,69.40
2022-12-31T13:39:30.328Z,67.91
2022-12-31T13:42:05.518Z,70.55
2022-12-31T13:44:39.359Z,69.64
2022-12-31T13:47:14.650Z,71.48
2022-12-31T13:49:47.755Z,71.72
2022-12-31T13:52:28.795Z,72.22
2022-12-31T13:55:05.688Z,68.46
2022-12-31T13:57:44.121Z,66.01
2022-12-31T14:00:23.057Z,66.93
2022-12-31T14:03:03.094Z,66.27
2022-12-31T14:05:35.678Z,66.28
2022-12-31T14:08:07.731Z,66.06
2022-12-31T14:10:47.057Z,65.38
2022-12-31T14:13:34.981Z,65.35
2022-12-31T14:16:15.756Z,66.03
2022-12-31T14:18:50.395Z,66.33
2022-12-31T14:21:25.510Z,65.86
2022-12-31T14:24:07.153Z,64.76
2022-12-31T14:26:46.564Z,64.95
2022-12-31T14:29:29.857Z,66.26
2022-12-31T14:32:33.571Z,65.46
2022-12-31T14:35:17.547Z,64.23
2022-12-31T14:37:55.896Z,64.60
2022-12-31T14:40:30.309Z,64.23
2022-12-31T14:43:13.559Z,64.68
2022-12-31T14:45:52.961Z,65.28
2022-12-31T14:48:37.668Z,63.93
2022-12-31T14:51:07.601Z,64.86
2022-12-31T14:53:36.611Z,65.53
2022-12-31T14:56:08.972Z,66.35
2022-12-31T14:58:39.629Z,66.46
2022-12-31T15:01:22.755Z,66.11
2022-12-31T15:03:52.152Z,66.02
2022-12-31T15:06:42.631Z,66.44
2022-12-31T15:09:38.797Z,65.77
2022-12-31T15:12:24.941Z,66.49
2022-12-31T15:15:09.685Z,66.36
2022-12-31T15:17:51.109Z,66.07
2022-12-31T15:20:41.412Z,66.73
2022-12-31T15:23:21.281Z,66.14
2022-12-31T15:25:53.021Z,64.33
2022-12-31T15:28:35.226Z,64.57
2022-12-31T15:31:11.763Z,65.42
2022-12-31T15:33:56.754Z,66.90
2022-12-31T15:36:27.773Z,66.96
2022-12-31T15:39:24.497Z,66.69
2022-12-31T15:42:36.613Z,66.79
2022-12-31T15:45:01.477Z,67.36
2022-12-31T15:47:39.320Z,67.98
2022-12-31T15:50:13.859Z,68.21
2022-12-31T15:52:45.252Z,67.56
2022-12-31T15:55:26.570Z,68.85
2022-12-31T15:57:57.598Z,67.74
2022-12-31T16:00:36.486Z,68.77
2022-12-31T16:03:06.215Z,68.24
2022-12-31T16:05:36.988Z,67.19
2022-12-31T16:08:07.221Z,67.90
2022-12-31T16:10:37.423Z,66.74
2022-12-31T16:13:06.806Z,65.34
2022-12-31T16:15:38.811Z,64.03
2022-12-31T16:18:18.960Z,64.22
2022-12-31T16:20:54.890Z,64.19
2022-12-31T16:23:26.721Z,65.40
2022-12-31T16:25:59.986Z,65.35
2022-12-31T16:28:32.417Z,65.65
2022-12-31T16:31:06.032Z,67.03
2022-12-31T16:33:35.636Z,65.97
2022-12-31T16:36:05.420Z,65.34
2022-12-31T16:38:36.060Z,65.59
2022-12-31T16:41:17.806Z,64.85
2022-12-31T16:43:48.030Z,64.82
2022-12-31T16:46:23.150Z,64.72
2022-12-31T16:48:56.128Z,64.48
2022-12-31T16:51:28.964Z,65.74
2022-12-31T16:53:58.840Z,66.25
2022-12-31T16:56:33.187Z,66.58
2022-12-31T16:59:04.799Z,65.05
2022-12-31T17:01:39.256Z,65.51
2022-12-31T17:04:12.646Z,66.29
2022-12-31T17:06:41.421Z,66.02
2022-12-31T17:09:14.652Z,65.35
2022-12-31T17:11:52.045Z,66.97
2022-12-31T17:14:23.160Z,66.45
2022-12-31T17:17:03.138Z,64.88
2022-12-31T17:19:39.798Z,66.10
2022-12-31T17:22:36.958Z,66.01
2022-12-31T17:25:09.379Z,66.63
2022-12-31T17:27:38.386Z,67.41
2022-12-31T17:30:22.219Z,67.08
2022-12-31T17:33:00.129Z,65.26
2022-12-31T17:35:32.335Z,65.37
2022-12-31T17:38:32.231Z,66.42
2022-12-31T17:41:16.972Z,66.96
2022-12-31T17:43:46.091Z,67.04
2022-12-31T17:46:17.147Z,66.62
2022-12-31T17:48:53.490Z,66.68
2022-12-31T17:51:24.428Z,67.00
2022-12-31T17:53:53.919Z,67.29
2022-12-31T17:56:23.334Z,65.69
2022-12-31T17:58:53.911Z,66.11
2022-12-31T18:01:25.403Z,65.97
2022-12-31T18:03:57.801Z,67.10
2022-12-31T18:06:31.295Z,67.69
2022-12-31T18:09:02.100Z,67.58
2022-12-31T18:11:34.531Z,66.41
2022-12-31T18:14:09.129Z,66.83
2022-12-31T18:16:38.584Z,67.21
2022-12-31T18:19:37.971Z,67.63
2022-12-31T18:22:11.257Z,67.09
2022-12-31T18:24:43.239Z,67.13
2022-12-31T18:27:18.805Z,66.68
2022-12-31T18:29:50.504Z,66.28
2022-12-31T18:32:32.319Z,65.84
2022-12-31T18:36:07.095Z,65.88
2022-12-31T18:38:24.427Z,64.74
2022-12-31T18:40:58.439Z,63.90
2022-12-31T18:43:29.673Z,65.67
2022-12-31T18:46:02.672Z,65.77
2022-12-31T18:48:35.570Z,66.65
2022-12-31T18:51:10.649Z,68.37
2022-12-31T18:53:43.217Z,68.06
2022-12-31T18:56:15.474Z,67.23
2022-12-31T18:58:46.341Z,69.31
2022-12-31T19:01:35.404Z,68.84
2022-12-31T19:04:09.329Z,68.63
2022-12-31T19:06:41.036Z,68.45
2022-12-31T19:09:37.704Z,66.42
2022-12-31T19:12:06.600Z,68.51
2022-12-31T19:14:37.974Z,67.65
2022-12-31T19:19:36.333Z,66.30
2022-12-31T19:22:07.874Z,68.12
2022-12-31T19:24:37.650Z,69.05
2022-12-31T19:27:06.818Z,67.90
2022-12-31T19:29:36.305Z,69.64
2022-12-31T19:32:08.174Z,68.11
2022-12-31T19:34:39.491Z,68.78
2022-12-31T19:37:14.066Z,69.29
2022-12-31T19:39:44.965Z,67.92
2022-12-31T19:42:17.055Z,68.38
2022-12-31T19:44:48.732Z,69.59
2022-12-31T19:47:19.960Z,67.34
2022-12-31T19:49:48.761Z,66.82
2022-12-31T19:52:19.291Z,68.13
2022-12-31T19:54:48.382Z,67.71
2022-12-31T19:57:21.000Z,68.11
2022-12-31T19:59:53.074Z,68.50
2022-12-31T20:02:22.959Z,67.38
2022-12-31T20:04:52.748Z,68.73
2022-12-31T20:07:27.259Z,67.20
2022-12-31T20:09:57.251Z,67.66
2022-12-31T20:12:27.252Z,68.04
2022-12-31T20:14:56.910Z,69.08
2022-12-31T20:17:28.015Z,67.94
2022-12-31T20:19:57.684Z,67.15
2022-12-31T20:22:28.215Z,69.50
2022-12-31T20:24:58.617Z,66.92
2022-12-31T20:27:28.536Z,67.97
2022-12-31T20:30:02.063Z,66.66
2022-12-31T20:32:33.206Z,67.97
2022-12-31T20:35:04.384Z,68.79
2022-12-31T20:37:36.522Z,65.64
2022-12-31T20:40:08.748Z,64.87
2022-12-31T20:42:40.534Z,67.55
2022-12-31T20:45:12.667Z,67.26
2022-12-31T20:47:42.835Z,66.56
2022-12-31T20:50:12.465Z,66.68
2022-12-31T20:52:44.010Z,65.87
2022-12-31T20:55:14.200Z,67.64
2022-12-31T20:57:42.745Z,65.61
2022-12-31T21:00:15.006Z,67.73
2022-12-31T21:02:46.616Z,66.68
2022-12-31T21:05:18.347Z,66.50
2022-12-31T21:07:48.437Z,66.99
2022-12-31T21:10:17.152Z,67.45
2022-12-31T21:12:44.652Z,67.01
2022-12-31T21:15:14.455Z,67.49
2022-12-31T21:17:43.028Z,69.41
2022-12-31T21:20:12.462Z,68.24
2022-12-31T21:22:41.004Z,68.72
2022-12-31T21:25:12.133Z,68.36
2022-12-31T21:27:41.178Z,68.40
2022-12-31T21:30:19.874Z,69.06
2022-12-31T21:32:49.800Z,66.23
2022-12-31T21:38:08.667Z,69.27
2022-12-31T21:40:41.574Z,68.34
2022-12-31T21:43:10.517Z,68.81
2022-12-31T21:45:39.262Z,67.59
2022-12-31T21:48:25.080Z,66.93
2022-12-31T21:50:55.553Z,68.68
2022-12-31T21:53:34.088Z,68.65
2022-12-31T21:56:11.774Z,67.22
2022-12-31T21:58:42.433Z,66.77
2022-12-31T22:01:36.674Z,72.26
2022-12-31T22:04:05.880Z,70.05
2022-12-31T22:06:37.923Z,68.82
2022-12-31T22:09:07.351Z,66.46
2022-12-31T22:11:37.250Z,67.64
2022-12-31T22:14:26.518Z,66.90
2022-12-31T22:16:54.995Z,66.72
2022-12-31T22:19:24.666Z,68.76
2022-12-31T22:21:53.629Z,70.40
2022-12-31T22:24:22.506Z,71.16
2022-12-31T22:26:55.825Z,70.66
2022-12-31T22:29:26.110Z,70.28
2022-12-31T22:32:00.907Z,69.10
2022-12-31T22:34:30.897Z,67.85
2022-12-31T22:37:14.385Z,68.14
2022-12-31T22:39:48.874Z,70.26
2022-12-31T22:42:22.000Z,67.76
2022-12-31T22:44:55.369Z,67.29
2022-12-31T22:47:24.034Z,67.05
2022-12-31T22:49:52.928Z,66.30
2022-12-31T22:52:21.395Z,68.31
2022-12-31T22:54:50.222Z,70.04
2022-12-31T22:57:26.070Z,67.50
2022-12-31T22:59:56.954Z,70.63
2022-12-31T23:02:25.849Z,70.97
2022-12-31T23:04:54.102Z,68.82
2022-12-31T23:07:43.075Z,70.11
2022-12-31T23:10:30.241Z,70.58
2022-12-31T23:13:20.164Z,71.17
2022-12-31T23:16:07.903Z,69.32
2022-12-31T23:18:54.125Z,67.32
2022-12-31T23:21:40.254Z,69.04
2022-12-31T23:24:18.012Z,68.53
2022-12-31T23:26:48.841Z,69.06
2022-12-31T23:29:17.313Z,68.22
2022-12-31T23:31:47.397Z,67.77
2022-12-31T23:34:16.704Z,68.55
2022-12-31T23:36:45.227Z,67.28
2022-12-31T23:39:14.053Z,68.18
2022-12-31T23:41:42.613Z,69.21
2022-12-31T23:44:12.010Z,67.95
2022-12-31T23:46:40.742Z,67.60
2022-12-31T23:49:10.923Z,70.01
2022-12-31T23:51:40.410Z,71.21
2022-12-31T23:54:09.303Z,68.84
2022-12-31T23:56:37.948Z,68.12
2022-12-31T23:59:06.479Z,68.95
